Aviation Digital Data Service (ADDS)

Output produced by METARs form (2054 UTC 31 January 2023)
found at http://www.aviationweather.gov/metar/data/
 
KGNV 311741Z 3118/0118 23005KT P6SM SCT045 BKN250 
     FM010000 25003KT P6SM FEW070 SCT250 
     FM010600 00000KT 2SM BR BKN004 
     FM010800 00000KT 1/4SM FG OVC002 
     FM011600 26005KT P6SM BKN250